createdAt,value
2023-03-04T00:05:19.869Z,32.60
2023-03-04T00:15:19.873Z,28.20
2023-03-04T00:25:19.907Z,34.00
2023-03-04T00:35:20.082Z,28.80
2023-03-04T00:45:19.929Z,36.80
2023-03-04T00:55:19.882Z,31.10
2023-03-04T01:05:19.880Z,32.50
2023-03-04T01:15:19.904Z,31.60
2023-03-04T01:25:19.908Z,37.00
2023-03-04T01:35:19.930Z,31.20
2023-03-04T01:45:19.895Z,35.40
2023-03-04T01:55:19.909Z,34.30
2023-03-04T02:05:19.889Z,32.20
2023-03-04T02:15:19.928Z,38.20
2023-03-04T02:25:19.901Z,28.70
2023-03-04T02:35:20.039Z,26.60
2023-03-04T02:45:19.937Z,25.00
2023-03-04T02:55:19.948Z,25.20
2023-03-04T03:05:19.917Z,29.20
2023-03-04T03:15:19.952Z,22.10
2023-03-04T03:25:20.027Z,22.70
2023-03-04T03:35:20.008Z,28.10
2023-03-04T03:45:19.952Z,27.80
2023-03-04T04:05:19.934Z,34.20
2023-03-04T04:15:19.966Z,30.70
2023-03-04T04:25:19.935Z,29.30
2023-03-04T04:35:20.010Z,26.70
2023-03-04T04:45:19.969Z,32.60
2023-03-04T04:55:19.987Z,27.90
2023-03-04T05:05:19.980Z,33.40
2023-03-04T05:15:19.972Z,28.30
2023-03-04T05:25:19.995Z,24.30
2023-03-04T05:35:20.112Z,29.50
2023-03-04T05:45:20.036Z,28.70
2023-03-04T05:55:19.971Z,24.90
2023-03-04T06:05:19.975Z,29.70
2023-03-04T06:15:20.013Z,24.60
2023-03-04T06:25:20.005Z,24.20
2023-03-04T06:35:20.058Z,25.70
2023-03-04T06:45:19.985Z,28.90
2023-03-04T06:55:20.039Z,34.30
2023-03-04T07:05:20.008Z,25.70
2023-03-04T07:15:20.018Z,28.50
2023-03-04T07:25:19.997Z,26.00
2023-03-04T07:35:20.086Z,26.20
2023-03-04T07:45:20.070Z,28.00
2023-03-04T07:55:20.042Z,37.40
2023-03-04T08:05:20.018Z,39.50
2023-03-04T08:15:20.053Z,28.50
2023-03-04T08:25:20.033Z,29.00
2023-03-04T08:35:20.120Z,29.90
2023-03-04T08:45:20.056Z,21.90
2023-03-04T08:55:20.053Z,26.20
2023-03-04T09:05:20.064Z,24.00
2023-03-04T09:15:20.046Z,28.80
2023-03-04T09:25:20.042Z,24.00
2023-03-04T09:35:20.095Z,24.40
2023-03-04T09:45:20.051Z,21.70
2023-03-04T09:55:20.071Z,30.80
2023-03-04T10:05:20.071Z,28.10
2023-03-04T10:25:20.071Z,25.00
2023-03-04T10:35:20.530Z,22.00
2023-03-04T10:45:20.024Z,23.20
2023-03-04T10:55:20.252Z,23.80
2023-03-04T11:05:20.030Z,21.70
2023-03-04T11:15:20.025Z,19.80
2023-03-04T11:25:20.080Z,19.20
2023-03-04T11:35:20.118Z,20.40
2023-03-04T11:45:28.720Z,19.80
2023-03-04T11:55:20.103Z,21.00
2023-03-04T12:05:20.860Z,21.70
2023-03-04T12:15:20.106Z,19.20
2023-03-04T12:25:20.448Z,20.60
2023-03-04T12:35:20.650Z,23.10
2023-03-04T12:45:20.101Z,21.30
2023-03-04T12:55:20.090Z,20.10
2023-03-04T13:05:20.133Z,24.60
2023-03-04T13:15:20.084Z,19.50
2023-03-04T13:25:20.111Z,19.70
2023-03-04T13:35:20.226Z,20.20
2023-03-04T13:45:22.418Z,21.30
2023-03-04T13:55:20.126Z,21.00
2023-03-04T14:05:20.128Z,19.90
2023-03-04T14:15:20.130Z,17.20
2023-03-04T14:25:20.151Z,21.70
2023-03-04T14:35:20.140Z,17.80
2023-03-04T14:45:20.255Z,18.00
2023-03-04T14:55:20.124Z,19.50
2023-03-04T15:05:25.874Z,18.20
2023-03-04T15:15:20.125Z,16.50
2023-03-04T15:25:20.612Z,17.40
2023-03-04T15:35:20.190Z,19.20
2023-03-04T15:45:20.137Z,20.20
2023-03-04T15:55:20.367Z,19.90
2023-03-04T16:05:20.146Z,19.60
2023-03-04T16:15:20.149Z,18.70
2023-03-04T16:25:20.223Z,18.50
2023-03-04T16:35:20.237Z,19.40
2023-03-04T16:45:20.203Z,26.10
2023-03-04T16:55:20.182Z,19.20
2023-03-04T17:05:20.197Z,19.30
2023-03-04T17:15:20.208Z,21.00
2023-03-04T17:25:20.190Z,19.10
2023-03-04T17:35:20.228Z,18.10
2023-03-04T17:45:20.254Z,16.60
2023-03-04T17:55:20.192Z,17.60
2023-03-04T18:05:20.212Z,18.50
2023-03-04T18:15:20.213Z,19.00
2023-03-04T18:25:20.225Z,17.30
2023-03-04T18:35:20.302Z,20.70
2023-03-04T18:45:20.196Z,19.70
2023-03-04T18:55:20.231Z,18.90
2023-03-04T19:05:20.228Z,18.70
2023-03-04T19:15:20.223Z,16.20
2023-03-04T19:25:20.238Z,16.70
2023-03-04T19:35:20.279Z,16.50
2023-03-04T19:45:20.304Z,16.40
2023-03-04T19:55:20.313Z,16.40
2023-03-04T20:05:20.245Z,17.40
2023-03-04T20:15:20.251Z,16.50
2023-03-04T20:25:20.246Z,17.10
2023-03-04T20:45:20.258Z,17.40
2023-03-04T20:55:20.232Z,17.80
2023-03-04T21:05:20.270Z,17.30
2023-03-04T21:15:20.230Z,17.50
2023-03-04T21:25:20.271Z,16.60
2023-03-04T21:35:20.330Z,17.10
2023-03-04T21:45:20.266Z,16.90
2023-03-04T21:55:20.431Z,16.80
2023-03-04T22:05:20.331Z,17.50
2023-03-04T22:15:20.294Z,17.30
2023-03-04T22:25:20.320Z,17.30
2023-03-04T22:35:20.300Z,17.00
2023-03-04T22:45:20.319Z,17.70
2023-03-04T22:55:20.323Z,18.40
2023-03-04T23:05:20.334Z,18.80
2023-03-04T23:15:20.354Z,18.30
2023-03-04T23:25:20.346Z,18.90
2023-03-04T23:35:20.404Z,18.80
2023-03-04T23:45:20.322Z,18.60
2023-03-04T23:55:20.408Z,17.40
